sensor_id;sensor_type;location;lat;lon;timestamp;P1;durP1;ratioP1;P2;durP2;ratioP2
38332;SDS011;25748;46.670;14.272;2023-02-11T00:00:56;8.90;;;4.13;;
38332;SDS011;25748;46.670;14.272;2023-02-11T00:03:22;9.17;;;3.77;;
38332;SDS011;25748;46.670;14.272;2023-02-11T00:05:57;10.70;;;4.10;;
38332;SDS011;25748;46.670;14.272;2023-02-11T00:08:28;21.57;;;3.50;;
38332;SDS011;25748;46.670;14.272;2023-02-11T00:10:54;6.37;;;3.57;;
38332;SDS011;25748;46.670;14.272;2023-02-11T00:13:21;9.03;;;3.43;;
38332;SDS011;25748;46.670;14.272;2023-02-11T00:15:47;9.23;;;3.83;;
38332;SDS011;25748;46.670;14.272;2023-02-11T00:18:13;6.87;;;3.57;;
38332;SDS011;25748;46.670;14.272;2023-02-11T00:20:39;8.40;;;4.47;;
38332;SDS011;25748;46.670;14.272;2023-02-11T00:23:06;4.83;;;2.20;;
38332;SDS011;25748;46.670;14.272;2023-02-11T00:25:32;10.83;;;4.63;;
38332;SDS011;25748;46.670;14.272;2023-02-11T00:27:58;7.07;;;3.90;;
38332;SDS011;25748;46.670;14.272;2023-02-11T00:30:23;14.83;;;4.13;;
38332;SDS011;25748;46.670;14.272;2023-02-11T00:32:49;7.33;;;2.97;;
38332;SDS011;25748;46.670;14.272;2023-02-11T00:35:15;5.13;;;2.13;;
38332;SDS011;25748;46.670;14.272;2023-02-11T00:37:41;6.33;;;3.63;;
38332;SDS011;25748;46.670;14.272;2023-02-11T00:40:06;11.30;;;4.00;;
38332;SDS011;25748;46.670;14.272;2023-02-11T00:42:33;4.60;;;3.47;;
38332;SDS011;25748;46.670;14.272;2023-02-11T00:45:00;7.17;;;2.47;;
38332;SDS011;25748;46.670;14.272;2023-02-11T00:47:26;3.33;;;2.17;;
38332;SDS011;25748;46.670;14.272;2023-02-11T00:49:51;6.57;;;3.07;;
38332;SDS011;25748;46.670;14.272;2023-02-11T00:52:17;5.70;;;3.20;;
38332;SDS011;25748;46.670;14.272;2023-02-11T00:54:43;5.63;;;3.17;;
38332;SDS011;25748;46.670;14.272;2023-02-11T00:57:08;6.03;;;3.13;;
38332;SDS011;25748;46.670;14.272;2023-02-11T00:59:34;9.47;;;3.67;;
38332;SDS011;25748;46.670;14.272;2023-02-11T01:02:00;5.40;;;3.07;;
38332;SDS011;25748;46.670;14.272;2023-02-11T01:04:26;8.60;;;4.67;;
38332;SDS011;25748;46.670;14.272;2023-02-11T01:06:51;8.93;;;3.23;;
38332;SDS011;25748;46.670;14.272;2023-02-11T01:09:17;5.63;;;3.27;;
38332;SDS011;25748;46.670;14.272;2023-02-11T01:11:45;5.30;;;3.50;;
38332;SDS011;25748;46.670;14.272;2023-02-11T01:14:11;3.67;;;1.60;;
38332;SDS011;25748;46.670;14.272;2023-02-11T01:16:37;4.50;;;2.10;;
38332;SDS011;25748;46.670;14.272;2023-02-11T01:19:02;4.43;;;2.57;;
38332;SDS011;25748;46.670;14.272;2023-02-11T01:21:28;7.37;;;3.17;;
38332;SDS011;25748;46.670;14.272;2023-02-11T01:23:54;10.33;;;2.23;;
38332;SDS011;25748;46.670;14.272;2023-02-11T01:26:19;11.10;;;2.90;;
38332;SDS011;25748;46.670;14.272;2023-02-11T01:28:45;7.67;;;5.23;;
38332;SDS011;25748;46.670;14.272;2023-02-11T01:31:11;6.30;;;2.93;;
38332;SDS011;25748;46.670;14.272;2023-02-11T01:33:38;8.20;;;3.93;;
38332;SDS011;25748;46.670;14.272;2023-02-11T01:36:04;8.43;;;4.17;;
38332;SDS011;25748;46.670;14.272;2023-02-11T01:38:30;7.83;;;3.67;;
38332;SDS011;25748;46.670;14.272;2023-02-11T01:43:29;5.67;;;3.20;;
38332;SDS011;25748;46.670;14.272;2023-02-11T01:46:01;4.63;;;2.90;;
38332;SDS011;25748;46.670;14.272;2023-02-11T01:48:39;8.75;;;3.90;;
38332;SDS011;25748;46.670;14.272;2023-02-11T01:51:09;6.93;;;3.30;;
38332;SDS011;25748;46.670;14.272;2023-02-11T01:53:38;7.07;;;2.53;;
38332;SDS011;25748;46.670;14.272;2023-02-11T01:56:24;4.87;;;3.43;;
38332;SDS011;25748;46.670;14.272;2023-02-11T01:59:17;4.57;;;3.00;;
38332;SDS011;25748;46.670;14.272;2023-02-11T02:01:52;7.07;;;2.78;;
38332;SDS011;25748;46.670;14.272;2023-02-11T02:04:22;4.03;;;2.60;;
38332;SDS011;25748;46.670;14.272;2023-02-11T02:06:58;4.50;;;2.57;;
38332;SDS011;25748;46.670;14.272;2023-02-11T02:09:28;5.97;;;2.80;;
38332;SDS011;25748;46.670;14.272;2023-02-11T02:12:00;18.03;;;3.10;;
38332;SDS011;25748;46.670;14.272;2023-02-11T02:14:26;8.63;;;3.80;;
38332;SDS011;25748;46.670;14.272;2023-02-11T02:16:52;5.73;;;3.13;;
38332;SDS011;25748;46.670;14.272;2023-02-11T02:33:32;10.67;;;2.87;;
38332;SDS011;25748;46.670;14.272;2023-02-11T02:36:13;7.82;;;3.22;;
38332;SDS011;25748;46.670;14.272;2023-02-11T02:41:15;8.43;;;4.10;;
38332;SDS011;25748;46.670;14.272;2023-02-11T02:43:45;6.57;;;3.23;;
38332;SDS011;25748;46.670;14.272;2023-02-11T02:46:24;7.90;;;3.87;;
38332;SDS011;25748;46.670;14.272;2023-02-11T02:48:51;4.27;;;2.13;;
38332;SDS011;25748;46.670;14.272;2023-02-11T03:02:46;12.30;;;3.57;;
38332;SDS011;25748;46.670;14.272;2023-02-11T03:05:16;10.23;;;3.83;;
38332;SDS011;25748;46.670;14.272;2023-02-11T03:07:45;3.63;;;2.43;;
38332;SDS011;25748;46.670;14.272;2023-02-11T03:10:16;6.27;;;2.37;;
38332;SDS011;25748;46.670;14.272;2023-02-11T03:12:47;5.47;;;2.80;;
38332;SDS011;25748;46.670;14.272;2023-02-11T03:15:14;3.97;;;1.93;;
38332;SDS011;25748;46.670;14.272;2023-02-11T03:17:43;3.00;;;1.80;;
38332;SDS011;25748;46.670;14.272;2023-02-11T03:20:12;3.03;;;2.30;;
38332;SDS011;25748;46.670;14.272;2023-02-11T03:22:41;2.83;;;2.17;;
38332;SDS011;25748;46.670;14.272;2023-02-11T03:25:13;4.50;;;2.60;;
38332;SDS011;25748;46.670;14.272;2023-02-11T03:32:38;10.57;;;4.20;;
38332;SDS011;25748;46.670;14.272;2023-02-11T03:35:23;8.97;;;3.50;;
38332;SDS011;25748;46.670;14.272;2023-02-11T03:38:12;14.40;;;3.90;;
38332;SDS011;25748;46.670;14.272;2023-02-11T03:40:41;6.67;;;3.37;;
38332;SDS011;25748;46.670;14.272;2023-02-11T03:43:14;4.70;;;2.80;;
38332;SDS011;25748;46.670;14.272;2023-02-11T03:45:44;4.67;;;2.43;;
38332;SDS011;25748;46.670;14.272;2023-02-11T03:48:16;7.90;;;4.00;;
38332;SDS011;25748;46.670;14.272;2023-02-11T03:50:49;7.10;;;2.97;;
38332;SDS011;25748;46.670;14.272;2023-02-11T03:53:19;7.13;;;2.50;;
38332;SDS011;25748;46.670;14.272;2023-02-11T03:55:46;6.23;;;3.37;;
38332;SDS011;25748;46.670;14.272;2023-02-11T03:58:13;5.53;;;3.33;;
38332;SDS011;25748;46.670;14.272;2023-02-11T04:00:39;5.77;;;3.27;;
38332;SDS011;25748;46.670;14.272;2023-02-11T04:03:06;9.40;;;3.27;;
38332;SDS011;25748;46.670;14.272;2023-02-11T04:05:33;3.53;;;1.77;;
38332;SDS011;25748;46.670;14.272;2023-02-11T04:07:59;6.47;;;3.07;;
38332;SDS011;25748;46.670;14.272;2023-02-11T04:10:24;6.10;;;3.70;;
38332;SDS011;25748;46.670;14.272;2023-02-11T04:12:50;5.33;;;2.20;;
38332;SDS011;25748;46.670;14.272;2023-02-11T04:15:16;2.77;;;2.40;;
38332;SDS011;25748;46.670;14.272;2023-02-11T04:17:42;9.30;;;3.27;;
38332;SDS011;25748;46.670;14.272;2023-02-11T04:20:09;6.47;;;2.10;;
38332;SDS011;25748;46.670;14.272;2023-02-11T04:22:35;10.03;;;3.23;;
38332;SDS011;25748;46.670;14.272;2023-02-11T04:25:01;5.10;;;3.03;;
38332;SDS011;25748;46.670;14.272;2023-02-11T04:27:28;4.97;;;2.50;;
38332;SDS011;25748;46.670;14.272;2023-02-11T04:29:54;3.03;;;1.20;;
38332;SDS011;25748;46.670;14.272;2023-02-11T04:32:20;15.53;;;2.20;;
38332;SDS011;25748;46.670;14.272;2023-02-11T04:34:45;8.87;;;2.50;;
38332;SDS011;25748;46.670;14.272;2023-02-11T04:37:12;6.63;;;2.93;;
38332;SDS011;25748;46.670;14.272;2023-02-11T04:39:38;5.00;;;2.73;;
38332;SDS011;25748;46.670;14.272;2023-02-11T04:42:04;10.47;;;3.30;;
38332;SDS011;25748;46.670;14.272;2023-02-11T04:44:30;2.90;;;2.33;;
38332;SDS011;25748;46.670;14.272;2023-02-11T04:46:56;11.33;;;3.93;;
38332;SDS011;25748;46.670;14.272;2023-02-11T04:49:21;3.33;;;2.27;;
38332;SDS011;25748;46.670;14.272;2023-02-11T04:51:47;3.93;;;2.07;;
38332;SDS011;25748;46.670;14.272;2023-02-11T04:54:13;8.10;;;3.00;;
38332;SDS011;25748;46.670;14.272;2023-02-11T04:56:38;4.43;;;1.97;;
38332;SDS011;25748;46.670;14.272;2023-02-11T04:59:04;6.87;;;3.10;;
38332;SDS011;25748;46.670;14.272;2023-02-11T05:01:30;2.33;;;1.73;;
38332;SDS011;25748;46.670;14.272;2023-02-11T05:03:56;4.20;;;2.10;;
38332;SDS011;25748;46.670;14.272;2023-02-11T05:06:22;9.63;;;2.37;;
38332;SDS011;25748;46.670;14.272;2023-02-11T05:08:47;2.93;;;1.87;;
38332;SDS011;25748;46.670;14.272;2023-02-11T05:11:14;7.43;;;1.60;;
38332;SDS011;25748;46.670;14.272;2023-02-11T05:13:41;4.07;;;2.03;;
38332;SDS011;25748;46.670;14.272;2023-02-11T05:16:07;7.27;;;2.77;;
38332;SDS011;25748;46.670;14.272;2023-02-11T05:18:36;4.23;;;2.83;;
38332;SDS011;25748;46.670;14.272;2023-02-11T05:21:09;7.27;;;3.27;;
38332;SDS011;25748;46.670;14.272;2023-02-11T05:23:37;4.53;;;2.77;;
38332;SDS011;25748;46.670;14.272;2023-02-11T05:26:04;10.27;;;2.47;;
38332;SDS011;25748;46.670;14.272;2023-02-11T05:28:30;4.20;;;2.27;;
38332;SDS011;25748;46.670;14.272;2023-02-11T05:30:56;7.53;;;1.80;;
38332;SDS011;25748;46.670;14.272;2023-02-11T05:33:22;5.83;;;2.30;;
38332;SDS011;25748;46.670;14.272;2023-02-11T05:35:48;6.20;;;3.27;;
38332;SDS011;25748;46.670;14.272;2023-02-11T05:38:14;13.07;;;3.60;;
38332;SDS011;25748;46.670;14.272;2023-02-11T05:40:40;5.43;;;2.90;;
38332;SDS011;25748;46.670;14.272;2023-02-11T05:43:06;4.27;;;2.03;;
38332;SDS011;25748;46.670;14.272;2023-02-11T05:45:31;3.00;;;1.70;;
38332;SDS011;25748;46.670;14.272;2023-02-11T05:47:57;5.47;;;2.87;;
38332;SDS011;25748;46.670;14.272;2023-02-11T05:50:23;6.47;;;2.93;;
38332;SDS011;25748;46.670;14.272;2023-02-11T05:52:49;10.30;;;2.50;;
38332;SDS011;25748;46.670;14.272;2023-02-11T05:55:14;8.67;;;2.20;;
38332;SDS011;25748;46.670;14.272;2023-02-11T05:57:40;5.63;;;2.63;;
38332;SDS011;25748;46.670;14.272;2023-02-11T06:00:06;10.93;;;3.90;;
38332;SDS011;25748;46.670;14.272;2023-02-11T06:02:32;4.67;;;2.67;;
38332;SDS011;25748;46.670;14.272;2023-02-11T06:04:58;3.37;;;2.80;;
38332;SDS011;25748;46.670;14.272;2023-02-11T06:07:24;5.00;;;3.33;;
38332;SDS011;25748;46.670;14.272;2023-02-11T06:09:49;4.80;;;2.30;;
38332;SDS011;25748;46.670;14.272;2023-02-11T06:12:15;6.77;;;2.90;;
38332;SDS011;25748;46.670;14.272;2023-02-11T06:14:41;7.60;;;2.13;;
38332;SDS011;25748;46.670;14.272;2023-02-11T06:17:06;6.60;;;3.07;;
38332;SDS011;25748;46.670;14.272;2023-02-11T06:19:32;3.33;;;1.97;;
38332;SDS011;25748;46.670;14.272;2023-02-11T06:21:58;5.97;;;2.20;;
38332;SDS011;25748;46.670;14.272;2023-02-11T06:24:23;6.77;;;2.03;;
38332;SDS011;25748;46.670;14.272;2023-02-11T06:26:49;13.43;;;3.37;;
38332;SDS011;25748;46.670;14.272;2023-02-11T06:29:15;4.00;;;1.33;;
38332;SDS011;25748;46.670;14.272;2023-02-11T06:31:40;8.20;;;2.90;;
38332;SDS011;25748;46.670;14.272;2023-02-11T06:34:07;6.17;;;2.47;;
38332;SDS011;25748;46.670;14.272;2023-02-11T06:36:33;7.27;;;3.33;;
38332;SDS011;25748;46.670;14.272;2023-02-11T06:38:59;4.40;;;2.43;;
38332;SDS011;25748;46.670;14.272;2023-02-11T06:41:25;9.10;;;2.07;;
38332;SDS011;25748;46.670;14.272;2023-02-11T06:43:51;5.23;;;2.57;;
38332;SDS011;25748;46.670;14.272;2023-02-11T06:46:17;9.20;;;3.77;;
38332;SDS011;25748;46.670;14.272;2023-02-11T06:48:43;3.83;;;2.17;;
38332;SDS011;25748;46.670;14.272;2023-02-11T06:51:09;2.83;;;1.93;;
38332;SDS011;25748;46.670;14.272;2023-02-11T06:53:38;9.23;;;5.07;;
38332;SDS011;25748;46.670;14.272;2023-02-11T06:56:06;8.57;;;3.53;;
38332;SDS011;25748;46.670;14.272;2023-02-11T06:58:33;20.67;;;3.97;;
38332;SDS011;25748;46.670;14.272;2023-02-11T07:00:59;11.80;;;4.00;;
38332;SDS011;25748;46.670;14.272;2023-02-11T07:03:27;11.03;;;3.17;;
38332;SDS011;25748;46.670;14.272;2023-02-11T07:05:53;7.50;;;4.67;;
38332;SDS011;25748;46.670;14.272;2023-02-11T07:08:19;7.20;;;3.67;;
38332;SDS011;25748;46.670;14.272;2023-02-11T07:10:44;8.80;;;4.93;;
38332;SDS011;25748;46.670;14.272;2023-02-11T07:13:10;10.70;;;5.07;;
38332;SDS011;25748;46.670;14.272;2023-02-11T07:15:36;16.30;;;4.97;;
38332;SDS011;25748;46.670;14.272;2023-02-11T07:18:02;7.70;;;4.67;;
38332;SDS011;25748;46.670;14.272;2023-02-11T07:20:28;14.80;;;4.40;;
38332;SDS011;25748;46.670;14.272;2023-02-11T07:22:54;4.37;;;2.50;;
38332;SDS011;25748;46.670;14.272;2023-02-11T07:25:19;6.73;;;3.00;;
38332;SDS011;25748;46.670;14.272;2023-02-11T07:27:45;7.13;;;4.47;;
38332;SDS011;25748;46.670;14.272;2023-02-11T07:30:11;8.57;;;3.60;;
38332;SDS011;25748;46.670;14.272;2023-02-11T07:32:37;20.40;;;4.10;;
38332;SDS011;25748;46.670;14.272;2023-02-11T07:35:03;5.80;;;2.83;;
38332;SDS011;25748;46.670;14.272;2023-02-11T07:37:29;11.60;;;4.53;;
38332;SDS011;25748;46.670;14.272;2023-02-11T07:39:55;8.80;;;4.97;;
38332;SDS011;25748;46.670;14.272;2023-02-11T07:42:20;11.60;;;4.63;;
38332;SDS011;25748;46.670;14.272;2023-02-11T07:44:46;8.27;;;4.23;;
38332;SDS011;25748;46.670;14.272;2023-02-11T07:47:12;6.07;;;3.50;;
38332;SDS011;25748;46.670;14.272;2023-02-11T07:49:37;9.57;;;3.90;;
38332;SDS011;25748;46.670;14.272;2023-02-11T07:52:03;8.83;;;3.37;;
38332;SDS011;25748;46.670;14.272;2023-02-11T07:54:29;8.10;;;4.70;;
38332;SDS011;25748;46.670;14.272;2023-02-11T07:56:54;11.93;;;4.87;;
38332;SDS011;25748;46.670;14.272;2023-02-11T07:59:20;11.97;;;3.40;;
38332;SDS011;25748;46.670;14.272;2023-02-11T08:01:48;15.13;;;3.80;;
38332;SDS011;25748;46.670;14.272;2023-02-11T08:04:15;12.33;;;3.83;;
38332;SDS011;25748;46.670;14.272;2023-02-11T08:06:41;10.00;;;4.57;;
38332;SDS011;25748;46.670;14.272;2023-02-11T08:09:08;9.03;;;4.60;;
38332;SDS011;25748;46.670;14.272;2023-02-11T08:11:37;7.97;;;4.20;;
38332;SDS011;25748;46.670;14.272;2023-02-11T08:14:02;13.13;;;5.07;;
38332;SDS011;25748;46.670;14.272;2023-02-11T08:16:29;14.47;;;6.47;;
38332;SDS011;25748;46.670;14.272;2023-02-11T08:18:58;6.37;;;3.57;;
38332;SDS011;25748;46.670;14.272;2023-02-11T08:21:26;10.13;;;4.73;;
38332;SDS011;25748;46.670;14.272;2023-02-11T08:23:52;7.20;;;3.27;;
38332;SDS011;25748;46.670;14.272;2023-02-11T08:26:19;6.83;;;3.60;;
38332;SDS011;25748;46.670;14.272;2023-02-11T08:28:47;13.37;;;4.83;;
38332;SDS011;25748;46.670;14.272;2023-02-11T08:31:16;10.20;;;4.77;;
38332;SDS011;25748;46.670;14.272;2023-02-11T08:33:43;9.10;;;4.30;;
38332;SDS011;25748;46.670;14.272;2023-02-11T08:36:09;10.67;;;4.80;;
38332;SDS011;25748;46.670;14.272;2023-02-11T08:38:36;10.07;;;4.00;;
38332;SDS011;25748;46.670;14.272;2023-02-11T08:41:02;6.90;;;3.80;;
38332;SDS011;25748;46.670;14.272;2023-02-11T08:43:28;7.20;;;3.90;;
38332;SDS011;25748;46.670;14.272;2023-02-11T08:45:54;8.70;;;4.30;;
38332;SDS011;25748;46.670;14.272;2023-02-11T08:48:20;8.70;;;4.33;;
38332;SDS011;25748;46.670;14.272;2023-02-11T08:50:46;12.87;;;5.40;;
38332;SDS011;25748;46.670;14.272;2023-02-11T08:53:11;9.30;;;4.53;;
38332;SDS011;25748;46.670;14.272;2023-02-11T08:55:37;7.00;;;3.67;;
38332;SDS011;25748;46.670;14.272;2023-02-11T08:58:04;7.83;;;4.60;;
38332;SDS011;25748;46.670;14.272;2023-02-11T09:00:30;9.07;;;3.80;;
38332;SDS011;25748;46.670;14.272;2023-02-11T09:02:55;6.40;;;3.40;;
38332;SDS011;25748;46.670;14.272;2023-02-11T09:05:21;11.33;;;3.23;;
38332;SDS011;25748;46.670;14.272;2023-02-11T09:07:47;7.23;;;4.00;;
38332;SDS011;25748;46.670;14.272;2023-02-11T09:10:13;8.20;;;3.97;;
38332;SDS011;25748;46.670;14.272;2023-02-11T09:12:38;8.83;;;4.03;;
38332;SDS011;25748;46.670;14.272;2023-02-11T09:15:04;12.33;;;4.63;;
38332;SDS011;25748;46.670;14.272;2023-02-11T09:17:30;6.57;;;3.40;;
38332;SDS011;25748;46.670;14.272;2023-02-11T09:19:56;10.40;;;4.63;;
38332;SDS011;25748;46.670;14.272;2023-02-11T09:22:22;10.20;;;4.30;;
38332;SDS011;25748;46.670;14.272;2023-02-11T09:24:47;8.97;;;3.93;;
38332;SDS011;25748;46.670;14.272;2023-02-11T09:27:13;5.93;;;3.60;;
38332;SDS011;25748;46.670;14.272;2023-02-11T09:29:39;8.17;;;3.60;;
38332;SDS011;25748;46.670;14.272;2023-02-11T09:32:04;10.47;;;4.00;;
38332;SDS011;25748;46.670;14.272;2023-02-11T09:34:30;10.10;;;4.43;;
38332;SDS011;25748;46.670;14.272;2023-02-11T09:36:56;8.20;;;4.00;;
38332;SDS011;25748;46.670;14.272;2023-02-11T09:39:21;9.40;;;4.07;;
38332;SDS011;25748;46.670;14.272;2023-02-11T09:44:17;8.77;;;4.13;;
38332;SDS011;25748;46.670;14.272;2023-02-11T09:46:46;13.45;;;3.97;;
38332;SDS011;25748;46.670;14.272;2023-02-11T09:49:20;13.03;;;3.37;;
38332;SDS011;25748;46.670;14.272;2023-02-11T09:51:51;8.13;;;4.07;;
38332;SDS011;25748;46.670;14.272;2023-02-11T09:54:23;10.85;;;5.00;;
38332;SDS011;25748;46.670;14.272;2023-02-11T09:56:54;7.10;;;3.35;;
38332;SDS011;25748;46.670;14.272;2023-02-11T09:59:20;12.77;;;4.30;;
38332;SDS011;25748;46.670;14.272;2023-02-11T10:16:08;7.38;;;2.75;;
38332;SDS011;25748;46.670;14.272;2023-02-11T10:22:40;5.97;;;3.10;;
38332;SDS011;25748;46.670;14.272;2023-02-11T10:24:35;8.57;;;3.88;;
38332;SDS011;25748;46.670;14.272;2023-02-11T10:27:13;6.70;;;3.20;;
38332;SDS011;25748;46.670;14.272;2023-02-11T10:29:45;9.88;;;4.25;;
38332;SDS011;25748;46.670;14.272;2023-02-11T10:34:57;15.98;;;3.35;;
38332;SDS011;25748;46.670;14.272;2023-02-11T10:37:26;7.45;;;4.03;;
38332;SDS011;25748;46.670;14.272;2023-02-11T10:39:52;7.50;;;3.05;;
38332;SDS011;25748;46.670;14.272;2023-02-11T10:42:18;9.90;;;4.38;;
38332;SDS011;25748;46.670;14.272;2023-02-11T10:47:26;7.95;;;3.83;;
38332;SDS011;25748;46.670;14.272;2023-02-11T10:49:54;10.65;;;3.78;;
38332;SDS011;25748;46.670;14.272;2023-02-11T10:52:27;8.40;;;3.42;;
38332;SDS011;25748;46.670;14.272;2023-02-11T10:57:48;8.20;;;3.17;;
38332;SDS011;25748;46.670;14.272;2023-02-11T11:00:34;6.57;;;2.92;;
38332;SDS011;25748;46.670;14.272;2023-02-11T11:03:06;9.45;;;3.72;;
38332;SDS011;25748;46.670;14.272;2023-02-11T11:05:47;9.57;;;3.30;;
38332;SDS011;25748;46.670;14.272;2023-02-11T11:08:13;8.02;;;2.65;;
38332;SDS011;25748;46.670;14.272;2023-02-11T11:10:42;6.95;;;3.45;;
38332;SDS011;25748;46.670;14.272;2023-02-11T11:13:24;6.97;;;2.67;;
38332;SDS011;25748;46.670;14.272;2023-02-11T11:16:05;8.00;;;3.47;;
38332;SDS011;25748;46.670;14.272;2023-02-11T11:18:37;9.18;;;4.13;;
38332;SDS011;25748;46.670;14.272;2023-02-11T11:21:11;7.47;;;3.55;;
38332;SDS011;25748;46.670;14.272;2023-02-11T11:23:47;11.55;;;4.70;;
38332;SDS011;25748;46.670;14.272;2023-02-11T11:26:25;8.23;;;4.93;;
38332;SDS011;25748;46.670;14.272;2023-02-11T11:29:14;6.65;;;3.78;;
38332;SDS011;25748;46.670;14.272;2023-02-11T11:34:26;11.15;;;4.43;;
38332;SDS011;25748;46.670;14.272;2023-02-11T11:36:52;15.02;;;4.95;;
38332;SDS011;25748;46.670;14.272;2023-02-11T11:39:22;12.05;;;5.60;;
38332;SDS011;25748;46.670;14.272;2023-02-11T11:44:36;10.48;;;5.35;;
38332;SDS011;25748;46.670;14.272;2023-02-11T11:49:36;13.20;;;5.57;;
38332;SDS011;25748;46.670;14.272;2023-02-11T11:55:12;9.52;;;4.32;;
38332;SDS011;25748;46.670;14.272;2023-02-11T11:57:48;10.45;;;3.88;;
38332;SDS011;25748;46.670;14.272;2023-02-11T12:00:16;10.23;;;3.83;;
38332;SDS011;25748;46.670;14.272;2023-02-11T12:05:25;9.98;;;4.38;;
38332;SDS011;25748;46.670;14.272;2023-02-11T12:10:56;9.50;;;4.40;;
38332;SDS011;25748;46.670;14.272;2023-02-11T12:13:38;8.73;;;4.30;;
38332;SDS011;25748;46.670;14.272;2023-02-11T12:21:46;7.38;;;3.80;;
38332;SDS011;25748;46.670;14.272;2023-02-11T12:27:10;7.82;;;3.55;;
38332;SDS011;25748;46.670;14.272;2023-02-11T12:30:03;7.45;;;3.92;;
38332;SDS011;25748;46.670;14.272;2023-02-11T12:44:10;10.38;;;4.03;;
38332;SDS011;25748;46.670;14.272;2023-02-11T12:46:49;8.77;;;3.95;;
38332;SDS011;25748;46.670;14.272;2023-02-11T12:49:36;7.53;;;4.22;;
38332;SDS011;25748;46.670;14.272;2023-02-11T12:52:20;10.27;;;4.90;;
38332;SDS011;25748;46.670;14.272;2023-02-11T12:54:59;8.10;;;4.95;;
38332;SDS011;25748;46.670;14.272;2023-02-11T12:57:29;10.27;;;4.95;;
38332;SDS011;25748;46.670;14.272;2023-02-11T13:02:33;7.93;;;4.32;;
38332;SDS011;25748;46.670;14.272;2023-02-11T13:07:58;8.95;;;4.28;;
38332;SDS011;25748;46.670;14.272;2023-02-11T13:10:37;8.18;;;4.57;;
38332;SDS011;25748;46.670;14.272;2023-02-11T13:13:17;10.18;;;3.88;;
38332;SDS011;25748;46.670;14.272;2023-02-11T13:18:44;6.05;;;3.13;;
38332;SDS011;25748;46.670;14.272;2023-02-11T13:22:18;12.00;;;4.22;;
38332;SDS011;25748;46.670;14.272;2023-02-11T13:29:41;11.10;;;4.43;;
38332;SDS011;25748;46.670;14.272;2023-02-11T13:35:37;11.50;;;4.20;;
38332;SDS011;25748;46.670;14.272;2023-02-11T13:40:51;11.45;;;4.85;;
38332;SDS011;25748;46.670;14.272;2023-02-11T13:43:25;8.70;;;4.18;;
38332;SDS011;25748;46.670;14.272;2023-02-11T13:45:56;10.13;;;4.35;;
38332;SDS011;25748;46.670;14.272;2023-02-11T13:48:34;13.88;;;4.72;;
38332;SDS011;25748;46.670;14.272;2023-02-11T13:51:05;9.32;;;4.30;;
38332;SDS011;25748;46.670;14.272;2023-02-11T13:56:27;13.77;;;5.47;;
38332;SDS011;25748;46.670;14.272;2023-02-11T13:58:54;10.40;;;5.13;;
38332;SDS011;25748;46.670;14.272;2023-02-11T14:04:20;14.88;;;5.55;;
38332;SDS011;25748;46.670;14.272;2023-02-11T14:07:25;10.38;;;5.15;;
38332;SDS011;25748;46.670;14.272;2023-02-11T14:16:16;10.05;;;5.05;;
38332;SDS011;25748;46.670;14.272;2023-02-11T14:21:16;13.70;;;4.88;;
38332;SDS011;25748;46.670;14.272;2023-02-11T14:35:09;13.88;;;4.68;;
38332;SDS011;25748;46.670;14.272;2023-02-11T14:43:39;12.50;;;5.40;;
38332;SDS011;25748;46.670;14.272;2023-02-11T14:46:10;13.70;;;5.22;;
38332;SDS011;25748;46.670;14.272;2023-02-11T14:48:36;12.13;;;5.15;;
38332;SDS011;25748;46.670;14.272;2023-02-11T14:51:12;9.88;;;5.00;;
38332;SDS011;25748;46.670;14.272;2023-02-11T14:53:51;10.55;;;5.35;;
38332;SDS011;25748;46.670;14.272;2023-02-11T14:56:23;15.25;;;4.55;;
38332;SDS011;25748;46.670;14.272;2023-02-11T14:58:51;11.77;;;5.07;;
38332;SDS011;25748;46.670;14.272;2023-02-11T15:01:22;14.32;;;5.13;;
38332;SDS011;25748;46.670;14.272;2023-02-11T15:04:01;11.63;;;4.93;;
38332;SDS011;25748;46.670;14.272;2023-02-11T15:06:32;10.35;;;5.10;;
38332;SDS011;25748;46.670;14.272;2023-02-11T15:09:11;12.35;;;4.40;;
38332;SDS011;25748;46.670;14.272;2023-02-11T15:11:41;10.05;;;4.82;;
38332;SDS011;25748;46.670;14.272;2023-02-11T15:14:10;9.70;;;4.55;;
38332;SDS011;25748;46.670;14.272;2023-02-11T15:16:43;14.73;;;5.20;;
38332;SDS011;25748;46.670;14.272;2023-02-11T15:19:44;10.50;;;5.22;;
38332;SDS011;25748;46.670;14.272;2023-02-11T15:22:18;15.25;;;4.72;;
38332;SDS011;25748;46.670;14.272;2023-02-11T15:25:02;10.07;;;3.95;;
38332;SDS011;25748;46.670;14.272;2023-02-11T15:27:37;14.07;;;4.80;;
38332;SDS011;25748;46.670;14.272;2023-02-11T15:30:16;10.02;;;4.50;;
38332;SDS011;25748;46.670;14.272;2023-02-11T15:32:45;14.07;;;4.40;;
38332;SDS011;25748;46.670;14.272;2023-02-11T15:35:11;10.57;;;4.88;;
38332;SDS011;25748;46.670;14.272;2023-02-11T15:37:40;13.43;;;5.07;;
38332;SDS011;25748;46.670;14.272;2023-02-11T15:40:10;12.10;;;5.43;;
38332;SDS011;25748;46.670;14.272;2023-02-11T15:42:40;9.20;;;4.22;;
38332;SDS011;25748;46.670;14.272;2023-02-11T15:45:36;16.40;;;4.95;;
38332;SDS011;25748;46.670;14.272;2023-02-11T15:50:57;12.93;;;5.70;;
38332;SDS011;25748;46.670;14.272;2023-02-11T16:01:38;16.33;;;5.78;;
38332;SDS011;25748;46.670;14.272;2023-02-11T16:04:04;12.48;;;5.30;;
38332;SDS011;25748;46.670;14.272;2023-02-11T16:06:35;11.23;;;5.32;;
38332;SDS011;25748;46.670;14.272;2023-02-11T16:11:35;13.68;;;5.35;;
38332;SDS011;25748;46.670;14.272;2023-02-11T16:17:04;9.18;;;5.07;;
38332;SDS011;25748;46.670;14.272;2023-02-11T16:19:35;12.98;;;5.18;;
38332;SDS011;25748;46.670;14.272;2023-02-11T16:22:07;13.98;;;6.00;;
38332;SDS011;25748;46.670;14.272;2023-02-11T16:24:36;13.52;;;5.25;;
38332;SDS011;25748;46.670;14.272;2023-02-11T16:27:05;9.70;;;5.00;;
38332;SDS011;25748;46.670;14.272;2023-02-11T16:29:40;10.65;;;4.32;;
38332;SDS011;25748;46.670;14.272;2023-02-11T16:32:15;19.75;;;6.20;;
38332;SDS011;25748;46.670;14.272;2023-02-11T16:34:43;15.00;;;5.68;;
38332;SDS011;25748;46.670;14.272;2023-02-11T16:37:09;13.85;;;5.68;;
38332;SDS011;25748;46.670;14.272;2023-02-11T16:39:35;13.27;;;6.88;;
38332;SDS011;25748;46.670;14.272;2023-02-11T16:42:00;12.15;;;5.20;;
38332;SDS011;25748;46.670;14.272;2023-02-11T16:44:27;16.20;;;6.68;;
38332;SDS011;25748;46.670;14.272;2023-02-11T16:46:53;13.35;;;5.03;;
38332;SDS011;25748;46.670;14.272;2023-02-11T16:49:23;11.57;;;6.15;;
38332;SDS011;25748;46.670;14.272;2023-02-11T16:51:51;15.90;;;6.38;;
38332;SDS011;25748;46.670;14.272;2023-02-11T16:54:20;9.52;;;4.78;;
38332;SDS011;25748;46.670;14.272;2023-02-11T16:56:46;14.82;;;5.57;;
38332;SDS011;25748;46.670;14.272;2023-02-11T16:59:13;14.95;;;5.22;;
38332;SDS011;25748;46.670;14.272;2023-02-11T17:01:39;14.38;;;5.47;;
38332;SDS011;25748;46.670;14.272;2023-02-11T17:04:06;12.00;;;5.50;;
38332;SDS011;25748;46.670;14.272;2023-02-11T17:06:40;12.55;;;4.15;;
38332;SDS011;25748;46.670;14.272;2023-02-11T17:09:05;12.57;;;6.05;;
38332;SDS011;25748;46.670;14.272;2023-02-11T17:11:32;16.70;;;7.50;;
38332;SDS011;25748;46.670;14.272;2023-02-11T17:13:58;27.27;;;10.98;;
38332;SDS011;25748;46.670;14.272;2023-02-11T17:16:23;9.55;;;5.07;;
38332;SDS011;25748;46.670;14.272;2023-02-11T17:18:50;10.77;;;4.82;;
38332;SDS011;25748;46.670;14.272;2023-02-11T17:21:16;11.20;;;5.03;;
38332;SDS011;25748;46.670;14.272;2023-02-11T17:23:41;16.33;;;4.45;;
38332;SDS011;25748;46.670;14.272;2023-02-11T17:26:07;11.57;;;5.38;;
38332;SDS011;25748;46.670;14.272;2023-02-11T17:28:33;12.73;;;4.88;;